createdAt,value
2018-03-17T00:02:14.905Z,9.97
2018-03-17T00:04:41.262Z,9.73
2018-03-17T00:07:07.702Z,10.83
2018-03-17T00:09:34.057Z,10.20
2018-03-17T00:12:00.422Z,9.80
2018-03-17T00:14:26.790Z,9.90
2018-03-17T00:16:53.206Z,10.03
2018-03-17T00:19:19.594Z,10.20
2018-03-17T00:21:45.942Z,10.57
2018-03-17T00:24:12.282Z,11.93
2018-03-17T00:26:38.647Z,16.43
2018-03-17T00:29:04.978Z,19.40
2018-03-17T00:31:31.338Z,21.10
2018-03-17T00:33:57.702Z,20.13
2018-03-17T00:36:24.029Z,19.33
2018-03-17T00:38:50.370Z,17.60
2018-03-17T00:41:16.785Z,15.40
2018-03-17T00:43:43.158Z,14.93
2018-03-17T00:46:12.472Z,13.63
2018-03-17T00:48:38.979Z,13.50
2018-03-17T00:51:05.359Z,13.67
2018-03-17T00:53:31.742Z,11.53
2018-03-17T00:55:58.148Z,10.27
2018-03-17T00:58:24.550Z,11.40
2018-03-17T01:00:50.998Z,11.03
2018-03-17T01:03:17.426Z,11.67
2018-03-17T01:05:43.858Z,12.60
2018-03-17T01:08:10.278Z,14.07
2018-03-17T01:10:36.658Z,13.77
2018-03-17T01:13:03.074Z,12.33
2018-03-17T01:15:29.449Z,11.63
2018-03-17T01:17:55.966Z,10.20
2018-03-17T01:20:22.390Z,10.13
2018-03-17T01:22:48.833Z,8.73
2018-03-17T01:25:15.198Z,8.60
2018-03-17T01:27:41.576Z,8.27
2018-03-17T01:30:07.954Z,7.80
2018-03-17T01:32:34.443Z,8.17
2018-03-17T01:35:00.794Z,9.07
2018-03-17T01:37:27.145Z,8.07
2018-03-17T01:39:53.751Z,7.87
2018-03-17T01:42:20.353Z,8.20
2018-03-17T01:44:46.697Z,8.83
2018-03-17T01:47:13.078Z,8.27
2018-03-17T01:49:39.454Z,8.37
2018-03-17T01:52:05.797Z,8.80
2018-03-17T01:54:32.297Z,8.13
2018-03-17T01:56:58.750Z,9.67
2018-03-17T01:59:25.292Z,10.43
2018-03-17T02:01:51.705Z,9.17
2018-03-17T02:04:18.106Z,8.27
2018-03-17T02:06:44.465Z,8.23
2018-03-17T02:09:10.929Z,7.43
2018-03-17T02:11:37.305Z,8.47
2018-03-17T02:14:03.737Z,9.30
2018-03-17T02:16:30.122Z,8.83
2018-03-17T02:18:56.517Z,8.60
2018-03-17T02:21:22.906Z,7.70
2018-03-17T02:23:49.325Z,7.97
2018-03-17T02:26:15.697Z,7.83
2018-03-17T02:28:42.117Z,7.50
2018-03-17T02:31:08.484Z,7.80
2018-03-17T02:33:34.922Z,7.77
2018-03-17T02:36:01.263Z,7.10
2018-03-17T02:38:27.662Z,7.63
2018-03-17T02:40:54.046Z,8.30
2018-03-17T02:43:20.409Z,9.20
2018-03-17T02:45:46.796Z,8.30
2018-03-17T02:48:13.222Z,9.13
2018-03-17T02:50:39.574Z,9.00
2018-03-17T02:53:05.915Z,8.83
2018-03-17T02:55:32.313Z,7.80
2018-03-17T02:57:58.669Z,7.80
2018-03-17T03:00:25.059Z,8.47
2018-03-17T03:02:51.418Z,9.00
2018-03-17T03:05:17.790Z,9.43
2018-03-17T03:07:44.130Z,9.40
2018-03-17T03:10:10.506Z,9.03
2018-03-17T03:12:36.878Z,7.90
2018-03-17T03:15:03.294Z,7.40
2018-03-17T03:17:29.671Z,7.17
2018-03-17T03:19:56.163Z,7.20
2018-03-17T03:22:22.530Z,7.40
2018-03-17T03:24:48.881Z,8.10
2018-03-17T03:27:15.278Z,8.03
2018-03-17T03:29:41.646Z,7.97
2018-03-17T03:32:08.002Z,7.13
2018-03-17T03:34:34.409Z,7.27
2018-03-17T03:37:00.768Z,7.73
2018-03-17T03:39:27.201Z,7.30
2018-03-17T03:41:53.583Z,6.87
2018-03-17T03:44:20.083Z,7.03
2018-03-17T03:46:46.520Z,6.90
2018-03-17T03:49:12.934Z,7.47
2018-03-17T03:51:39.445Z,7.53
2018-03-17T03:54:05.857Z,6.40
2018-03-17T03:56:32.261Z,6.57
2018-03-17T03:58:58.654Z,6.23
2018-03-17T04:01:25.078Z,6.97
2018-03-17T04:03:51.509Z,7.10
2018-03-17T04:06:18.049Z,6.73
2018-03-17T04:08:44.462Z,7.83
2018-03-17T04:11:10.873Z,9.47
2018-03-17T04:13:37.309Z,9.80
2018-03-17T04:16:03.742Z,9.80
2018-03-17T04:18:30.166Z,8.87
2018-03-17T04:20:56.582Z,9.50
2018-03-17T04:23:23.018Z,8.83
2018-03-17T04:25:49.381Z,8.60
2018-03-17T04:28:15.766Z,9.17
2018-03-17T04:30:42.145Z,9.60
2018-03-17T04:33:08.494Z,10.63
2018-03-17T04:35:34.857Z,10.53
2018-03-17T04:38:01.262Z,10.57
2018-03-17T04:40:27.709Z,11.40
2018-03-17T04:42:54.117Z,10.87
2018-03-17T04:45:20.520Z,10.30
2018-03-17T04:47:46.873Z,10.77
2018-03-17T04:50:13.223Z,11.87
2018-03-17T04:52:39.593Z,10.53
2018-03-17T04:55:05.957Z,9.97
2018-03-17T04:57:32.405Z,9.00
2018-03-17T04:59:58.815Z,8.87
2018-03-17T05:02:25.198Z,8.20
2018-03-17T05:04:51.564Z,8.60
2018-03-17T05:07:17.977Z,8.97
2018-03-17T05:09:44.374Z,9.73
2018-03-17T05:12:10.766Z,10.13
2018-03-17T05:14:37.131Z,10.63
2018-03-17T05:17:03.539Z,11.53
2018-03-17T05:19:29.910Z,12.10
2018-03-17T05:21:56.294Z,12.33
2018-03-17T05:24:22.658Z,13.40
2018-03-17T05:26:49.079Z,13.63
2018-03-17T05:29:15.440Z,14.47
2018-03-17T05:31:41.971Z,15.93
2018-03-17T05:34:08.357Z,15.33
2018-03-17T05:36:34.814Z,18.73
2018-03-17T05:39:01.226Z,19.63
2018-03-17T05:41:27.887Z,21.83
2018-03-17T05:43:54.305Z,22.63
2018-03-17T05:46:20.753Z,21.23
2018-03-17T05:48:47.145Z,21.90
2018-03-17T05:51:13.548Z,23.63
2018-03-17T05:53:39.886Z,25.23
2018-03-17T05:56:06.243Z,25.40
2018-03-17T05:58:32.761Z,23.67
2018-03-17T06:00:59.210Z,22.33
2018-03-17T06:03:25.633Z,21.00
2018-03-17T06:05:51.990Z,21.33
2018-03-17T06:08:18.366Z,21.63
2018-03-17T06:10:44.758Z,19.73
2018-03-17T06:13:11.145Z,19.90
2018-03-17T06:15:37.522Z,19.40
2018-03-17T06:18:03.914Z,21.10
2018-03-17T06:20:30.306Z,22.30
2018-03-17T06:22:56.711Z,21.07
2018-03-17T06:25:23.095Z,17.50
2018-03-17T06:27:49.532Z,18.33
2018-03-17T06:30:15.939Z,19.80
2018-03-17T06:32:42.335Z,18.90
2018-03-17T06:35:08.722Z,18.73
2018-03-17T06:37:35.114Z,19.30
2018-03-17T06:40:01.569Z,19.97
2018-03-17T06:42:28.064Z,20.23
2018-03-17T06:44:54.463Z,21.43
2018-03-17T06:47:21.075Z,22.23
2018-03-17T06:49:47.451Z,22.10
2018-03-17T06:52:13.870Z,24.87
2018-03-17T06:54:40.245Z,24.60
2018-03-17T06:57:06.637Z,22.73
2018-03-17T06:59:33.149Z,23.43
2018-03-17T07:01:59.544Z,24.77
2018-03-17T07:04:26.293Z,25.30
2018-03-17T07:06:52.691Z,26.53
2018-03-17T07:09:19.077Z,24.37
2018-03-17T07:11:45.714Z,26.13
2018-03-17T07:14:12.142Z,26.40
2018-03-17T07:16:38.638Z,26.50
2018-03-17T07:19:05.057Z,29.93
2018-03-17T07:21:31.510Z,30.60
2018-03-17T07:23:57.916Z,28.10
2018-03-17T07:26:24.379Z,29.67
2018-03-17T07:28:50.898Z,31.33
2018-03-17T07:31:17.327Z,30.87
2018-03-17T07:33:43.750Z,31.23
2018-03-17T07:36:10.138Z,28.37
2018-03-17T07:38:36.510Z,33.37
2018-03-17T07:41:02.954Z,28.47
2018-03-17T07:43:29.354Z,29.50
2018-03-17T07:45:55.750Z,30.40
2018-03-17T07:48:22.153Z,27.43
2018-03-17T07:50:48.501Z,29.40
2018-03-17T07:53:14.878Z,27.00
2018-03-17T07:55:41.241Z,24.83
2018-03-17T07:58:07.706Z,22.87
2018-03-17T08:00:34.098Z,13.47
2018-03-17T08:03:00.530Z,11.07
2018-03-17T08:05:26.973Z,7.87
2018-03-17T08:07:53.371Z,6.67
2018-03-17T08:10:19.748Z,6.40
2018-03-17T08:12:46.177Z,6.27
2018-03-17T08:15:12.609Z,6.77
2018-03-17T08:17:38.986Z,8.13
2018-03-17T08:20:05.445Z,5.73
2018-03-17T08:22:32.213Z,6.63
2018-03-17T08:24:58.614Z,8.10
2018-03-17T08:27:25.025Z,5.23
2018-03-17T08:29:51.496Z,7.10
2018-03-17T08:32:17.870Z,5.80
2018-03-17T08:34:44.280Z,6.47
2018-03-17T08:37:10.758Z,5.60
2018-03-17T08:39:37.294Z,6.07
2018-03-17T08:42:03.669Z,5.40
2018-03-17T08:44:30.034Z,5.60
2018-03-17T08:46:56.398Z,5.23
2018-03-17T08:49:23.233Z,5.87
2018-03-17T08:51:49.799Z,5.60
2018-03-17T08:54:16.201Z,5.57
2018-03-17T08:56:42.594Z,4.97
2018-03-17T08:59:09.003Z,4.93
2018-03-17T09:01:35.386Z,5.10
2018-03-17T09:04:01.841Z,5.23
2018-03-17T09:06:28.273Z,4.57
2018-03-17T09:08:54.666Z,5.13
2018-03-17T09:11:21.097Z,4.93
2018-03-17T09:13:47.442Z,5.17
2018-03-17T09:16:13.798Z,5.40
2018-03-17T09:18:40.209Z,4.37
2018-03-17T09:21:06.570Z,4.70
2018-03-17T09:23:32.914Z,4.40
2018-03-17T09:25:59.314Z,4.83
2018-03-17T09:28:25.734Z,4.37
2018-03-17T09:30:52.113Z,4.07
2018-03-17T09:33:18.577Z,4.53
2018-03-17T09:35:44.986Z,5.67
2018-03-17T09:38:11.385Z,5.47
2018-03-17T09:40:37.750Z,4.50
2018-03-17T09:43:04.191Z,4.73
2018-03-17T09:45:30.982Z,5.20
2018-03-17T09:47:57.350Z,5.67
2018-03-17T09:50:23.738Z,4.67
2018-03-17T09:52:50.118Z,4.80
2018-03-17T09:55:16.527Z,4.57
2018-03-17T09:57:42.922Z,4.53
2018-03-17T10:00:09.290Z,4.37
2018-03-17T10:02:35.642Z,3.90
2018-03-17T10:05:02.014Z,4.33
2018-03-17T10:07:28.389Z,4.50
2018-03-17T10:09:54.798Z,4.30
2018-03-17T10:12:21.214Z,4.00
2018-03-17T10:14:47.619Z,4.57
2018-03-17T10:17:14.069Z,4.20
2018-03-17T10:19:40.409Z,4.07
2018-03-17T10:22:06.758Z,4.07
2018-03-17T10:24:33.091Z,4.27
2018-03-17T10:26:59.722Z,5.73
2018-03-17T10:29:26.849Z,4.93
2018-03-17T10:31:53.397Z,5.20
2018-03-17T10:34:19.727Z,5.00
2018-03-17T10:36:46.152Z,5.27
2018-03-17T10:39:12.514Z,5.13
2018-03-17T10:41:38.921Z,5.40
2018-03-17T10:44:05.294Z,4.60
2018-03-17T10:46:31.651Z,4.60
2018-03-17T10:48:58.086Z,4.73
2018-03-17T10:51:24.498Z,5.50
2018-03-17T10:53:50.885Z,4.70
2018-03-17T10:56:17.275Z,5.53
2018-03-17T10:58:43.670Z,5.10
2018-03-17T11:01:16.081Z,5.80
2018-03-17T11:03:42.443Z,5.50
2018-03-17T11:06:08.907Z,5.23
2018-03-17T11:08:35.406Z,5.53
2018-03-17T11:11:01.802Z,7.17
2018-03-17T11:13:28.171Z,5.33
2018-03-17T11:15:54.558Z,5.33
2018-03-17T11:18:20.888Z,6.40
2018-03-17T11:20:47.277Z,5.63
2018-03-17T11:23:13.665Z,5.20
2018-03-17T11:25:40.043Z,4.30
2018-03-17T11:28:06.438Z,6.20
2018-03-17T11:30:33.014Z,8.53
2018-03-17T11:32:59.469Z,5.03
2018-03-17T11:35:25.885Z,6.60
2018-03-17T11:37:52.244Z,6.10
2018-03-17T11:40:18.622Z,6.03
2018-03-17T11:42:45.053Z,7.10
2018-03-17T11:45:11.414Z,8.00
2018-03-17T11:47:37.758Z,6.07
2018-03-17T11:50:04.119Z,5.17
2018-03-17T11:52:30.586Z,5.97
2018-03-17T11:54:56.993Z,6.43
2018-03-17T11:57:23.350Z,5.70
2018-03-17T11:59:49.694Z,4.67
2018-03-17T12:02:16.138Z,4.63
2018-03-17T12:04:42.486Z,5.47
2018-03-17T12:07:08.914Z,5.40
2018-03-17T12:09:35.354Z,5.33
2018-03-17T12:12:01.710Z,5.23
2018-03-17T12:14:28.091Z,5.47
2018-03-17T12:16:54.487Z,5.10
2018-03-17T12:19:20.850Z,5.10
2018-03-17T12:21:47.217Z,5.23
2018-03-17T12:24:13.573Z,5.53
2018-03-17T12:26:39.982Z,5.50
2018-03-17T12:29:06.459Z,5.20
2018-03-17T12:31:32.778Z,5.37
2018-03-17T12:33:59.210Z,5.90
2018-03-17T12:36:25.595Z,6.10
2018-03-17T12:38:51.941Z,4.83
2018-03-17T12:41:18.962Z,5.67
2018-03-17T12:43:45.394Z,4.53
2018-03-17T12:46:11.822Z,5.60
2018-03-17T12:48:38.234Z,5.10
2018-03-17T12:51:04.695Z,4.83
2018-03-17T12:53:31.077Z,5.10
2018-03-17T12:55:57.558Z,4.60
2018-03-17T12:58:24.147Z,4.83
2018-03-17T13:00:50.594Z,4.80
2018-03-17T13:03:16.955Z,5.17
2018-03-17T13:05:43.346Z,4.43
2018-03-17T13:08:09.700Z,3.70
2018-03-17T13:10:36.196Z,4.27
2018-03-17T13:13:02.589Z,4.93
2018-03-17T13:15:28.959Z,4.63
2018-03-17T13:17:55.327Z,4.20
2018-03-17T13:20:21.699Z,4.50
2018-03-17T13:23:00.356Z,4.23
2018-03-17T13:25:26.854Z,4.20
2018-03-17T13:28:05.372Z,3.70
2018-03-17T13:30:31.654Z,4.63
2018-03-17T13:32:58.310Z,5.80
2018-03-17T13:35:36.797Z,5.70
2018-03-17T13:38:03.146Z,4.70
2018-03-17T13:40:31.481Z,5.83
2018-03-17T13:42:57.873Z,4.17
2018-03-17T13:45:24.230Z,4.10
2018-03-17T13:47:50.582Z,4.33
2018-03-17T13:50:17.244Z,4.70
2018-03-17T13:52:43.631Z,5.03
2018-03-17T13:55:09.975Z,6.03
2018-03-17T13:57:36.382Z,4.40
2018-03-17T14:00:02.815Z,4.00
2018-03-17T14:02:29.270Z,4.30
2018-03-17T14:04:55.659Z,3.73
2018-03-17T14:07:22.001Z,4.47
2018-03-17T14:09:48.330Z,4.50
2018-03-17T14:12:14.768Z,3.93
2018-03-17T14:14:41.118Z,4.30
2018-03-17T14:17:07.603Z,4.20
2018-03-17T14:19:33.974Z,4.43
2018-03-17T14:22:00.325Z,5.17
2018-03-17T14:24:26.998Z,5.00
2018-03-17T14:26:53.342Z,5.10
2018-03-17T14:29:19.721Z,5.03
2018-03-17T14:31:46.046Z,5.57
2018-03-17T14:34:12.425Z,5.17
2018-03-17T14:36:38.790Z,4.97
2018-03-17T14:39:05.230Z,4.17
2018-03-17T14:41:31.598Z,5.20
2018-03-17T14:43:57.940Z,5.00
2018-03-17T14:46:24.298Z,4.80
2018-03-17T14:48:50.677Z,4.43
2018-03-17T14:51:17.036Z,5.00
2018-03-17T14:53:43.509Z,5.27
2018-03-17T14:56:09.874Z,5.27
2018-03-17T14:58:36.310Z,4.70
2018-03-17T15:01:02.687Z,5.40
2018-03-17T15:03:29.065Z,4.67
2018-03-17T15:05:55.489Z,5.33
2018-03-17T15:08:21.909Z,5.47
2018-03-17T15:10:48.314Z,5.43
2018-03-17T15:13:14.691Z,5.83
2018-03-17T15:15:41.021Z,5.77
2018-03-17T15:18:07.370Z,5.40
2018-03-17T15:20:33.717Z,5.67
2018-03-17T15:23:00.050Z,5.07
2018-03-17T15:25:26.445Z,5.47
2018-03-17T15:27:52.853Z,6.30
2018-03-17T15:30:19.304Z,4.90
2018-03-17T15:32:45.660Z,4.87
2018-03-17T15:35:12.079Z,5.53
2018-03-17T15:37:38.441Z,4.90
2018-03-17T15:40:04.820Z,5.40
2018-03-17T15:42:31.153Z,5.37
2018-03-17T15:44:57.494Z,5.70
2018-03-17T15:47:23.945Z,5.07
2018-03-17T15:49:50.322Z,5.20
2018-03-17T15:52:16.662Z,6.10
2018-03-17T15:54:43.105Z,6.13
2018-03-17T15:57:09.440Z,7.07
2018-03-17T15:59:35.802Z,6.40
2018-03-17T16:02:03.030Z,6.70
2018-03-17T16:04:29.370Z,6.67
2018-03-17T16:06:55.704Z,7.00
2018-03-17T16:09:22.187Z,7.63
2018-03-17T16:11:48.534Z,5.97
2018-03-17T16:14:14.911Z,5.77
2018-03-17T16:16:41.398Z,7.30
2018-03-17T16:19:10.316Z,6.23
2018-03-17T16:21:36.930Z,7.40
2018-03-17T16:24:03.350Z,6.23
2018-03-17T16:26:29.836Z,6.57
2018-03-17T16:28:56.389Z,6.50
2018-03-17T16:31:23.514Z,7.83
2018-03-17T16:33:49.881Z,6.37
2018-03-17T16:36:16.249Z,6.17
2018-03-17T16:38:42.601Z,6.10
2018-03-17T16:41:09.078Z,7.33
2018-03-17T16:43:35.454Z,5.93
2018-03-17T16:46:01.850Z,7.30
2018-03-17T16:48:28.215Z,7.43
2018-03-17T16:50:54.636Z,7.40
2018-03-17T16:53:21.042Z,7.03
2018-03-17T16:55:47.430Z,7.00
2018-03-17T16:58:13.769Z,6.37
2018-03-17T17:00:40.246Z,6.60
2018-03-17T17:03:06.758Z,7.20
2018-03-17T17:05:33.115Z,8.17
2018-03-17T17:07:59.754Z,7.30
2018-03-17T17:10:26.282Z,7.67
2018-03-17T17:12:52.679Z,8.20
2018-03-17T17:15:19.062Z,8.17
2018-03-17T17:17:45.499Z,8.30
2018-03-17T17:20:12.029Z,7.50
2018-03-17T17:22:38.424Z,6.90
2018-03-17T17:25:04.994Z,8.17
2018-03-17T17:27:31.454Z,9.63
2018-03-17T17:29:57.967Z,12.50
2018-03-17T17:32:24.382Z,6.90
2018-03-17T17:34:50.725Z,7.77
2018-03-17T17:37:17.086Z,8.60
2018-03-17T17:39:43.449Z,7.40
2018-03-17T17:42:09.844Z,7.83
2018-03-17T17:44:36.345Z,7.33
2018-03-17T17:47:02.718Z,7.50
2018-03-17T17:49:29.107Z,11.57
2018-03-17T17:51:55.490Z,35.23
2018-03-17T17:54:22.036Z,72.27
2018-03-17T17:56:48.377Z,86.57
2018-03-17T17:59:14.777Z,27.37
2018-03-17T18:01:41.164Z,14.00
2018-03-17T18:04:16.257Z,12.07
2018-03-17T18:06:47.530Z,10.60
2018-03-17T18:09:13.878Z,8.30
2018-03-17T18:11:40.262Z,7.50
2018-03-17T18:14:06.610Z,8.53
2018-03-17T18:16:32.982Z,7.87
2018-03-17T18:18:59.464Z,8.03
2018-03-17T18:21:25.915Z,5.97
2018-03-17T18:23:52.406Z,6.73
2018-03-17T18:26:18.790Z,6.90
2018-03-17T18:28:45.151Z,6.30
2018-03-17T18:31:11.520Z,7.13
2018-03-17T18:33:37.939Z,7.70
2018-03-17T18:36:04.334Z,8.27
2018-03-17T18:38:30.749Z,6.70
2018-03-17T18:40:57.230Z,7.67
2018-03-17T18:43:23.629Z,7.60
2018-03-17T18:45:50.211Z,7.20
2018-03-17T18:48:16.652Z,7.37
2018-03-17T18:50:43.058Z,7.13
2018-03-17T18:53:09.428Z,8.27
2018-03-17T18:55:35.786Z,7.13
2018-03-17T18:58:02.258Z,7.57
2018-03-17T19:00:28.641Z,7.57
2018-03-17T19:02:54.976Z,7.13
2018-03-17T19:05:21.350Z,7.87
2018-03-17T19:07:47.724Z,7.93
2018-03-17T19:10:14.085Z,7.53
2018-03-17T19:12:40.478Z,7.40
2018-03-17T19:15:06.831Z,7.67
2018-03-17T19:17:33.254Z,6.93
2018-03-17T19:19:59.603Z,6.20
2018-03-17T19:22:26.008Z,7.07
2018-03-17T19:24:52.389Z,7.03
2018-03-17T19:27:18.726Z,6.43
2018-03-17T19:29:45.091Z,6.57
2018-03-17T19:32:11.442Z,7.27
2018-03-17T19:34:37.782Z,6.17
2018-03-17T19:37:06.119Z,6.70
2018-03-17T19:39:32.543Z,7.07
2018-03-17T19:41:58.914Z,6.47
2018-03-17T19:44:25.591Z,6.20
2018-03-17T19:46:53.059Z,6.17
2018-03-17T19:49:20.603Z,6.07
2018-03-17T19:51:47.882Z,7.43
2018-03-17T19:54:14.250Z,7.17
2018-03-17T19:56:40.642Z,7.33
2018-03-17T19:59:07.120Z,9.27
2018-03-17T20:01:33.510Z,9.00
2018-03-17T20:03:59.846Z,7.17
2018-03-17T20:06:26.214Z,8.00
2018-03-17T20:08:52.598Z,7.73
2018-03-17T20:11:19.042Z,8.23
2018-03-17T20:13:45.434Z,7.33
2018-03-17T20:16:11.778Z,7.97
2018-03-17T20:18:38.143Z,7.00
2018-03-17T20:21:04.571Z,6.63
2018-03-17T20:23:30.914Z,7.00
2018-03-17T20:25:57.270Z,7.47
2018-03-17T20:28:23.610Z,6.83
2018-03-17T20:30:49.966Z,6.93
2018-03-17T20:33:16.285Z,6.63
2018-03-17T20:35:42.618Z,6.43
2018-03-17T20:38:08.959Z,6.37
2018-03-17T20:40:35.319Z,7.17
2018-03-17T20:43:01.712Z,6.57
2018-03-17T20:45:28.207Z,6.23
2018-03-17T20:47:54.627Z,6.70
2018-03-17T20:50:20.966Z,6.57
2018-03-17T20:52:47.382Z,6.83
2018-03-17T20:55:13.718Z,6.87
2018-03-17T20:57:40.097Z,7.00
2018-03-17T21:00:06.502Z,6.27
2018-03-17T21:02:32.870Z,6.73
2018-03-17T21:04:59.243Z,7.20
2018-03-17T21:07:25.634Z,6.87
2018-03-17T21:09:52.052Z,7.50
2018-03-17T21:12:18.403Z,7.13
2018-03-17T21:14:44.791Z,7.90
2018-03-17T21:17:11.147Z,8.30
2018-03-17T21:19:37.496Z,6.83
2018-03-17T21:22:03.885Z,6.50
2018-03-17T21:24:30.238Z,7.83
2018-03-17T21:26:56.619Z,7.30
2018-03-17T21:29:23.025Z,7.30
2018-03-17T21:31:49.435Z,6.57
2018-03-17T21:34:15.793Z,6.03
2018-03-17T21:36:42.126Z,7.30
2018-03-17T21:39:08.491Z,7.70
2018-03-17T21:41:34.842Z,7.90
2018-03-17T21:44:01.252Z,7.20
2018-03-17T21:46:27.598Z,6.53
2018-03-17T21:48:54.242Z,6.23
2018-03-17T21:51:20.666Z,7.23
2018-03-17T21:53:47.033Z,6.40
2018-03-17T21:56:13.386Z,6.87
2018-03-17T21:58:39.743Z,6.90
2018-03-17T22:01:06.114Z,14.10
2018-03-17T22:03:32.477Z,8.10
2018-03-17T22:05:58.930Z,6.90
2018-03-17T22:08:25.286Z,6.47
2018-03-17T22:10:51.675Z,7.20
2018-03-17T22:13:18.090Z,5.90
2018-03-17T22:15:44.462Z,6.47
2018-03-17T22:18:10.810Z,6.10
2018-03-17T22:20:37.190Z,6.87
2018-03-17T22:23:03.594Z,6.40
2018-03-17T22:25:29.918Z,7.27
2018-03-17T22:27:56.279Z,6.13
2018-03-17T22:30:22.642Z,6.63
2018-03-17T22:32:48.998Z,6.80
2018-03-17T22:35:15.333Z,5.90
2018-03-17T22:37:41.693Z,7.07
2018-03-17T22:40:08.122Z,6.80
2018-03-17T22:42:34.513Z,6.33
2018-03-17T22:45:00.863Z,6.63
2018-03-17T22:47:27.313Z,6.70
2018-03-17T22:49:53.647Z,6.13
2018-03-17T22:52:20.035Z,5.63
2018-03-17T22:54:46.386Z,6.47
2018-03-17T22:57:12.744Z,7.00
2018-03-17T22:59:39.089Z,6.73
2018-03-17T23:02:05.502Z,7.03
2018-03-17T23:04:31.854Z,6.43
2018-03-17T23:06:58.198Z,6.27
2018-03-17T23:09:24.554Z,6.83
2018-03-17T23:11:50.950Z,6.83
2018-03-17T23:14:17.321Z,6.27
2018-03-17T23:16:43.650Z,7.13
2018-03-17T23:19:10.126Z,6.90
2018-03-17T23:21:36.462Z,5.60
2018-03-17T23:24:02.882Z,5.90
2018-03-17T23:26:29.226Z,5.90
2018-03-17T23:28:55.678Z,5.87
2018-03-17T23:31:22.067Z,6.43
2018-03-17T23:33:48.445Z,6.10
2018-03-17T23:36:14.841Z,6.10
2018-03-17T23:38:41.238Z,5.60
2018-03-17T23:41:07.614Z,5.97
2018-03-17T23:43:34.026Z,6.50
2018-03-17T23:46:00.427Z,6.07
2018-03-17T23:48:26.841Z,6.30
2018-03-17T23:50:53.315Z,7.43
2018-03-17T23:53:19.710Z,5.97
2018-03-17T23:55:46.101Z,6.67
2018-03-17T23:58:12.535Z,6.73
